Crouch End, United Kingdom
Current Conditions -  °F | °C
As of 10:50 PM on Tuesday 21 Oct 2014 (Local Time) from EGLC Reporting Station
Clear Clear  
Wind Chill: 50°   Ceiling: Unl
Heat Index: 50°   Visibility: 6mi
Dew Point: 37°   Wind: 22mph
Humidity: 62%   Direction: 300°WNW
Pressure: 30.09"   Gusts: NA
Location:  51.58°N, 0.12°W
Report Text: EGLC 212150Z AUTO 30019KT 9999 NCD 10/03 Q1019
Loading
Personal Weather Stations






























Interactive Weather Map
Tropical Storm Tracking
New forecast layout! Learn more

10-Day Weather Forecast

Advertisements
Track Severe Weather on mobile